x

Nanakwa Shoal (46181) Wave Buoy

12:00am - Sun 31st Aug 2014 All times are PDT. -7 hours from GMT.

  • Sig Wave height 0.3ft
  • Peak Period 2s
  • Wind
    11mph, 13mph gusts
  • Sea Temp 60°f
  • Air Temp 57°f
  • Sea Pressure 1011.8mb
  • Nanakwa Shoal
  • Nanakwa Shoal

More Historic Weather Station data

Upgrade to MSW Pro to gain access to the past 30 days of data for over 8000 Wavebouys and Weather Stations around the globe.

Join Pro

Comparision Forecast

View Surf forecast
   
Sun 08/31 12:00am 0.3ft 2s 11 13 mph 1011.8mb 60f 57f
Sat 08/30 11:00pm  -  2s 7 9 mph 1011.8mb 60f 57f
10:00pm 0.3ft 2s 7 9 mph 1011.7mb 59f 57f
9:00pm 0.3ft 2s 11 16 mph 1011.2mb 59f 58f
8:00pm 0.3ft 2s 11 13 mph 1010.8mb 59f 58f
7:00pm 0.7ft 2s 13 18 mph 1010.4mb 59f 58f
6:00pm 0.7ft 2s 13 20 mph 1010mb 59f 59f
5:00pm 0.3ft 2s 13 16 mph 1009.8mb 60f 59f
4:00pm 0.3ft 2s 9 11 mph 1009.5mb 60f 59f
3:00pm 0.7ft 2s 16 20 mph 1009.1mb 59f 59f
2:00pm 0.7ft 2s 16 20 mph 1009.1mb 59f 58f
1:00pm 0.7ft 2s 13 18 mph 1009mb 59f 58f
12:00pm 0.7ft 2s 18 22 mph 1008.3mb 59f 58f
11:00am 0.7ft 2s 18 20 mph 1008.1mb 59f 57f
10:00am 0.7ft 2s 16 18 mph 1007.9mb 60f 57f
9:00am 0.3ft 2s 16 20 mph 1007.3mb 60f 57f
8:00am 0.3ft 2s 13 18 mph 1006.8mb 60f 56f
7:00am 0.3ft 2s 13 16 mph 1006.4mb 60f 56f
6:00am 0.3ft 2s 11 13 mph 1006.2mb 60f 56f
5:00am 0.3ft 2s 9 13 mph 1006mb 60f 56f
4:00am 0.3ft 2s 7 9 mph 1005.9mb 60f 56f
3:00am 0.3ft 2s 13 16 mph 1005.8mb 60f 56f
2:00am 0.3ft 2s 13 18 mph 1006.1mb 60f 57f
1:00am 0.3ft 2s 4 7 mph 1006.4mb 60f 57f
12:00am 0.3ft 2s 4 9 mph 1006.5mb 60f 58f
Fri 08/29 11:00pm 0.3ft 2s 4 7 mph 1006.7mb 61f 57f
10:00pm 0.3ft 2s 7 9 mph 1006.9mb 61f 58f
9:00pm 0.3ft 2s 7 9 mph 1007.1mb 61f 57f
8:00pm 0.3ft 2s 9 11 mph 1007mb 61f 57f
7:00pm 0.3ft 2s 7 11 mph 1007mb 62f 58f
6:00pm 0.3ft 2s 7 9 mph 1007mb 61f 57f
5:00pm 0.3ft 2s 4
mph
1006.8mb 61f 57f
4:00pm 0.3ft 2s 2
mph
1007mb 62f 57f
3:00pm 0.3ft 3s 2 4 mph 1007.3mb 61f 57f
2:00pm 0.3ft 3s 2 4 mph 1007.7mb 60f 56f
1:00pm 0.3ft 3s 2 4 mph 1007.9mb 60f 55f
12:00pm 0.3ft 2s  -  mph 1008.2mb 60f 56f
11:00am  -  2s 2 4 mph 1008.8mb 60f 56f
10:00am  -  2s 2 4 mph 1009mb 60f 56f
9:00am  -  2s  -  2 mph 1009.4mb 60f 55f
8:00am 0.3ft 3s 2
mph
1009.9mb 60f 55f
7:00am  -  2s  -  2 mph 1010.1mb 60f 54f
6:00am  -  2s 2
mph
1010.4mb 60f 55f
5:00am  -  2s 2
mph
1010.8mb 60f 55f
4:00am 0.3ft 2s 2
mph
1011.2mb 60f 55f
3:00am 0.3ft 2s 9 11 mph 1011.8mb 60f 55f
2:00am 0.3ft 2s 9 11 mph 1012.4mb 61f 55f
1:00am 0.7ft 2s 11 16 mph 1012.7mb 61f 56f
12:00am 0.3ft 2s 18 20 mph 1012.9mb 61f 59f
Thu 08/28 11:00pm 0.3ft 2s 13 16 mph 1013.4mb 61f 60f
10:00pm 0.3ft 2s 13 16 mph 1014.1mb 61f 60f
9:00pm 0.7ft 2s 11 13 mph 1014.6mb 61f 61f
8:00pm 0.7ft 2s 13 16 mph 1014.9mb 61f 62f
7:00pm 1ft 2s 16 20 mph 1014.8mb 62f 63f
6:00pm 1ft 2s 13 16 mph 1014.9mb 62f 63f
5:00pm 1ft 2s 16 18 mph 1015.1mb 62f 63f
4:00pm 0.7ft 2s 16 22 mph 1015.3mb 62f 64f
3:00pm 0.3ft 2s 13 18 mph 1015.7mb 62f 62f
2:00pm  -  2s 11 13 mph 1016.2mb 63f 61f
1:00pm  -  2s 4 7 mph 1016.9mb 63f 59f
12:00pm 0.3ft 2s 2
mph
1017.5mb 62f 60f
11:00am 0.3ft 2s 4
mph
1018.1mb 61f 58f
10:00am 0.3ft 2s 9 11 mph 1018.3mb 61f 56f
9:00am 0.7ft 2s 9 11 mph 1018.4mb 61f 55f
8:00am 0.3ft 2s 11
mph
1018.5mb 60f 55f
7:00am 0.3ft 2s 9 11 mph 1018.4mb 60f 55f
6:00am 0.3ft 2s 9 11 mph 1018.4mb 60f 55f
5:00am 0.3ft 2s 9
mph
1018.3mb 60f 56f
4:00am  -  2s 9
mph
1018.3mb 60f 56f
3:00am  -  2s 7 9 mph 1018.1mb 61f 57f
2:00am  -  2s 2 4 mph 1017.9mb 61f 58f
1:00am  -  2s  -  2 mph 1017.9mb 60f 58f
12:00am 0.3ft 2s 2 4 mph 1017.8mb 61f 58f
Wed 08/27 11:00pm 0.3ft 2s 2 4 mph 1017.8mb 61f 59f
10:00pm 0.3ft 2s 4 7 mph 1017.6mb 61f 61f
9:00pm 0.3ft 2s 7 9 mph 1017.4mb 61f 62f
8:00pm 0.3ft 2s 9
mph
1016.9mb 61f 63f
7:00pm 0.3ft 2s 16 18 mph 1016.6mb 62f 64f
6:00pm 0.3ft 3s 9 11 mph 1017mb 62f 63f
5:00pm 0.3ft 2s 13
mph
1016.9mb 62f 64f
4:00pm 0.3ft 2s 9 11 mph 1017.4mb 63f 63f
3:00pm  -  2s 9 11 mph 1017.7mb 62f 62f
2:00pm  -  2s 9 11 mph 1017.7mb 62f 61f
1:00pm  -  2s 4
mph
1018.1mb 62f 60f
12:00pm  -  2s 4
mph
1018.8mb 61f 58f
11:00am 0.3ft 2s 4 7 mph 1019.1mb 60f 58f
10:00am 0.3ft 2s 4 7 mph 1019.4mb 60f 57f
9:00am 0.3ft 2s 7 9 mph 1019.3mb 60f 57f